createdAt,value
2022-09-26T00:01:29.222Z,44.83
2022-09-26T00:04:02.531Z,44.59
2022-09-26T00:06:29.968Z,44.72
2022-09-26T00:08:57.722Z,44.57
2022-09-26T00:11:27.726Z,44.91
2022-09-26T00:13:57.951Z,44.87
2022-09-26T00:16:25.816Z,44.58
2022-09-26T00:18:55.851Z,44.11
2022-09-26T00:21:24.478Z,44.15
2022-09-26T00:23:52.358Z,44.25
2022-09-26T00:26:22.300Z,44.31
2022-09-26T00:28:50.049Z,44.31
2022-09-26T00:31:29.926Z,44.29
2022-09-26T00:33:58.007Z,44.11
2022-09-26T00:36:37.563Z,43.92
2022-09-26T00:39:09.901Z,43.56
2022-09-26T00:41:39.003Z,44.07
2022-09-26T00:44:43.879Z,43.53
2022-09-26T00:47:37.273Z,43.23
2022-09-26T00:50:22.504Z,43.23
2022-09-26T00:52:58.838Z,43.39
2022-09-26T00:55:31.060Z,43.71
2022-09-26T00:58:24.858Z,43.38
2022-09-26T01:00:52.614Z,43.35
2022-09-26T01:03:21.001Z,43.61
2022-09-26T01:05:48.942Z,43.00
2022-09-26T01:08:25.879Z,43.30
2022-09-26T01:10:53.678Z,43.20
2022-09-26T01:13:22.314Z,43.21
2022-09-26T01:15:49.607Z,43.80
2022-09-26T01:18:17.052Z,43.21
2022-09-26T01:21:21.655Z,43.88
2022-09-26T01:24:27.004Z,43.34
2022-09-26T01:27:28.828Z,43.38
2022-09-26T01:30:07.528Z,43.75
2022-09-26T01:32:51.634Z,43.92
2022-09-26T01:35:27.971Z,43.65
2022-09-26T01:38:01.142Z,44.01
2022-09-26T01:40:53.107Z,43.36
2022-09-26T01:43:38.577Z,43.27
2022-09-26T01:46:08.862Z,44.10
2022-09-26T01:48:43.340Z,44.01
2022-09-26T01:51:22.665Z,44.29
2022-09-26T01:53:59.802Z,44.19
2022-09-26T01:56:30.584Z,43.77
2022-09-26T01:59:07.474Z,43.78
2022-09-26T02:01:41.157Z,43.75
2022-09-26T02:04:16.848Z,44.32
2022-09-26T02:06:57.324Z,44.42
2022-09-26T02:09:41.909Z,44.56
2022-09-26T02:12:13.868Z,44.85
2022-09-26T02:14:43.837Z,45.18
2022-09-26T02:17:17.317Z,45.04
2022-09-26T02:19:57.263Z,45.17
2022-09-26T02:22:31.062Z,44.64
2022-09-26T02:25:00.323Z,44.61
2022-09-26T02:27:28.534Z,44.25
2022-09-26T02:29:56.261Z,44.74
2022-09-26T02:32:33.645Z,45.01
2022-09-26T02:35:01.880Z,45.31
2022-09-26T02:37:32.589Z,46.12
2022-09-26T02:40:01.319Z,45.99
2022-09-26T02:42:47.994Z,46.14
2022-09-26T02:45:33.781Z,45.89
2022-09-26T02:48:16.434Z,45.68
2022-09-26T02:51:03.936Z,46.27
2022-09-26T02:53:56.940Z,46.23
2022-09-26T02:56:57.276Z,46.34
2022-09-26T02:59:57.937Z,46.41
2022-09-26T03:02:43.643Z,46.54
2022-09-26T03:05:21.755Z,46.90
2022-09-26T03:08:05.431Z,46.96
2022-09-26T03:10:34.434Z,46.98
2022-09-26T03:13:08.991Z,47.54
2022-09-26T03:15:41.367Z,47.96
2022-09-26T03:18:13.226Z,48.32
2022-09-26T03:20:41.773Z,47.55
2022-09-26T03:23:11.577Z,47.58
2022-09-26T03:25:39.695Z,47.77
2022-09-26T03:28:12.618Z,48.09
2022-09-26T03:30:40.693Z,48.03
2022-09-26T03:33:28.505Z,47.51
2022-09-26T03:35:56.422Z,47.82
2022-09-26T03:38:26.944Z,47.82
2022-09-26T03:41:04.447Z,47.97
2022-09-26T03:43:46.968Z,48.24
2022-09-26T03:46:16.075Z,48.52
2022-09-26T03:48:43.916Z,48.46
2022-09-26T03:51:15.253Z,48.28
2022-09-26T03:53:47.478Z,48.41
2022-09-26T03:56:29.857Z,48.17
2022-09-26T03:58:57.457Z,48.10
2022-09-26T04:01:25.107Z,48.12
2022-09-26T04:03:52.670Z,47.99
2022-09-26T04:06:21.254Z,48.44
2022-09-26T04:08:52.039Z,48.38
2022-09-26T04:11:23.238Z,48.13
2022-09-26T04:13:53.549Z,48.21
2022-09-26T04:16:24.548Z,48.39
2022-09-26T04:19:02.119Z,47.94
2022-09-26T04:21:30.055Z,48.04
2022-09-26T04:23:59.512Z,48.44
2022-09-26T04:26:27.262Z,48.23
2022-09-26T04:28:57.010Z,48.22
2022-09-26T04:31:37.108Z,48.54
2022-09-26T04:34:11.888Z,48.29
2022-09-26T04:36:39.421Z,47.83
2022-09-26T04:39:07.059Z,48.27
2022-09-26T04:41:36.986Z,48.03
2022-09-26T04:44:04.375Z,47.91
2022-09-26T04:46:32.656Z,47.92
2022-09-26T04:49:02.266Z,47.33
2022-09-26T04:51:32.926Z,47.78
2022-09-26T04:54:00.398Z,47.90
2022-09-26T04:56:30.512Z,48.02
2022-09-26T04:58:59.662Z,48.56
2022-09-26T05:01:34.421Z,48.59
2022-09-26T05:04:07.591Z,48.43
2022-09-26T05:06:34.961Z,48.53
2022-09-26T05:09:04.644Z,48.62
2022-09-26T05:11:51.078Z,48.64
2022-09-26T05:14:18.698Z,48.58
2022-09-26T05:16:47.672Z,49.05
2022-09-26T05:19:16.797Z,49.35
2022-09-26T05:22:03.131Z,49.52
2022-09-26T05:25:04.671Z,49.48
2022-09-26T05:27:32.340Z,49.37
2022-09-26T05:30:00.261Z,49.33
2022-09-26T05:32:29.272Z,49.01
2022-09-26T05:34:58.001Z,49.20
2022-09-26T05:37:28.426Z,49.13
2022-09-26T05:40:14.153Z,49.20
2022-09-26T05:42:47.665Z,49.42
2022-09-26T05:45:16.025Z,49.15
2022-09-26T05:47:44.144Z,49.51
2022-09-26T05:50:12.108Z,49.43
2022-09-26T05:52:40.592Z,49.40
2022-09-26T05:55:15.135Z,49.70
2022-09-26T05:58:01.250Z,50.22
2022-09-26T06:00:48.955Z,50.34
2022-09-26T06:03:16.968Z,50.02
2022-09-26T06:05:55.086Z,49.68
2022-09-26T06:08:39.030Z,49.27
2022-09-26T06:11:31.673Z,49.35
2022-09-26T06:14:01.192Z,49.04
2022-09-26T06:16:29.871Z,49.51
2022-09-26T06:18:57.252Z,49.20
2022-09-26T06:21:25.161Z,49.43
2022-09-26T06:23:59.709Z,49.81
2022-09-26T06:26:29.817Z,49.53
2022-09-26T06:29:00.577Z,49.59
2022-09-26T06:31:30.502Z,50.09
2022-09-26T06:34:12.346Z,50.08
2022-09-26T06:36:55.722Z,49.64
2022-09-26T06:39:23.171Z,49.40
2022-09-26T06:41:51.822Z,49.56
2022-09-26T06:44:36.034Z,49.69
2022-09-26T06:47:30.377Z,49.28
2022-09-26T06:50:26.717Z,48.76
2022-09-26T06:52:57.321Z,48.77
2022-09-26T06:55:25.620Z,49.09
2022-09-26T06:57:54.222Z,47.95
2022-09-26T07:00:26.076Z,48.00
2022-09-26T07:03:05.367Z,48.35
2022-09-26T07:05:48.650Z,47.62
2022-09-26T07:08:17.196Z,47.61
2022-09-26T07:10:44.815Z,47.15
2022-09-26T07:13:25.154Z,47.75
2022-09-26T07:16:08.233Z,47.92
2022-09-26T07:18:56.468Z,48.15
2022-09-26T07:21:35.813Z,47.60
2022-09-26T07:24:09.040Z,47.15
2022-09-26T07:26:36.924Z,47.10
2022-09-26T07:29:04.755Z,46.10
2022-09-26T07:31:32.360Z,46.65
2022-09-26T07:34:25.327Z,45.62
2022-09-26T07:36:53.198Z,46.00
2022-09-26T07:39:20.842Z,46.27
2022-09-26T07:41:50.039Z,45.92
2022-09-26T07:47:27.656Z,46.83
2022-09-26T07:50:14.756Z,45.92
2022-09-26T07:52:49.640Z,45.90
2022-09-26T07:55:28.692Z,46.04
2022-09-26T07:58:26.487Z,46.42
2022-09-26T08:01:16.861Z,46.95
2022-09-26T08:04:00.101Z,46.77
2022-09-26T08:06:35.333Z,46.08
2022-09-26T08:09:06.751Z,46.42
2022-09-26T08:11:53.464Z,48.06
2022-09-26T08:14:49.107Z,49.57
2022-09-26T08:17:35.743Z,49.50
2022-09-26T08:20:03.780Z,48.90
2022-09-26T08:22:31.648Z,49.31
2022-09-26T08:25:00.559Z,51.83
2022-09-26T08:27:37.084Z,52.71
2022-09-26T08:30:04.961Z,53.41
2022-09-26T08:32:32.591Z,53.27
2022-09-26T08:35:00.459Z,53.58
2022-09-26T08:37:46.380Z,53.61
2022-09-26T08:40:44.287Z,51.84
2022-09-26T08:43:56.645Z,53.04
2022-09-26T08:47:06.127Z,53.24
2022-09-26T08:50:01.853Z,52.15
2022-09-26T08:52:34.056Z,51.23
2022-09-26T08:55:14.210Z,50.43
2022-09-26T08:57:46.763Z,50.07
2022-09-26T09:00:19.687Z,50.93
2022-09-26T09:03:20.588Z,50.18
2022-09-26T09:06:04.236Z,50.59
2022-09-26T09:08:42.115Z,50.47
2022-09-26T09:11:59.236Z,50.53
2022-09-26T09:14:26.709Z,50.36
2022-09-26T09:17:32.344Z,51.53
2022-09-26T09:20:21.511Z,50.69
2022-09-26T09:23:17.604Z,51.22
2022-09-26T09:25:54.597Z,52.41
2022-09-26T09:29:04.619Z,53.37
2022-09-26T09:31:37.243Z,57.26
2022-09-26T09:34:39.655Z,63.29
2022-09-26T09:37:49.280Z,67.75
2022-09-26T09:40:48.440Z,70.50
2022-09-26T09:43:27.385Z,72.00
2022-09-26T09:46:03.101Z,73.22
2022-09-26T09:48:30.895Z,73.89
2022-09-26T09:51:00.744Z,75.23
2022-09-26T09:53:57.830Z,75.34
2022-09-26T09:56:43.485Z,77.08
2022-09-26T09:59:45.168Z,75.61
2022-09-26T10:02:37.709Z,78.29
2022-09-26T10:05:43.029Z,75.53
2022-09-26T10:08:14.785Z,71.88
2022-09-26T10:11:29.559Z,74.67
2022-09-26T10:14:03.560Z,72.00
2022-09-26T10:17:12.313Z,72.77
2022-09-26T10:19:45.350Z,71.92
2022-09-26T10:22:45.228Z,71.34
2022-09-26T10:25:26.583Z,71.60
2022-09-26T10:27:57.343Z,71.82
2022-09-26T10:30:34.435Z,70.60
2022-09-26T10:33:24.664Z,70.07
2022-09-26T10:36:05.149Z,70.00
2022-09-26T10:38:55.205Z,70.36
2022-09-26T10:41:25.375Z,70.47
2022-09-26T10:43:57.827Z,70.71
2022-09-26T10:46:46.893Z,70.53
2022-09-26T10:50:06.359Z,71.30
2022-09-26T10:52:51.806Z,72.73
2022-09-26T10:55:29.782Z,72.80
2022-09-26T10:58:02.147Z,72.17
2022-09-26T11:00:40.394Z,72.74
2022-09-26T11:03:18.092Z,72.64
2022-09-26T11:06:06.103Z,73.19
2022-09-26T11:08:38.650Z,73.15
2022-09-26T11:11:25.190Z,74.96
2022-09-26T11:13:56.533Z,75.01
2022-09-26T11:16:24.294Z,75.63
2022-09-26T11:19:09.874Z,75.41
2022-09-26T11:21:44.069Z,77.33
2022-09-26T11:24:25.919Z,77.96
2022-09-26T11:27:24.050Z,79.42
2022-09-26T11:30:21.097Z,81.20
2022-09-26T11:33:00.692Z,79.90
2022-09-26T11:36:23.148Z,82.44
2022-09-26T11:38:58.044Z,84.23
2022-09-26T11:41:38.643Z,83.86
2022-09-26T11:44:21.279Z,83.69
2022-09-26T11:47:38.811Z,84.91
2022-09-26T11:50:40.293Z,85.21
2022-09-26T11:53:45.788Z,85.45
2022-09-26T11:56:23.306Z,85.99
2022-09-26T11:59:20.108Z,85.95
2022-09-26T12:02:18.876Z,84.95
2022-09-26T12:05:13.991Z,85.31
2022-09-26T12:07:47.265Z,85.94
2022-09-26T12:10:25.506Z,84.76
2022-09-26T12:13:03.595Z,85.29
2022-09-26T12:15:42.414Z,86.60
2022-09-26T12:18:24.542Z,85.80
2022-09-26T12:21:01.616Z,87.06
2022-09-26T12:23:45.112Z,88.86
2022-09-26T12:26:34.992Z,88.80
2022-09-26T12:29:41.850Z,86.93
2022-09-26T12:32:51.611Z,88.86
2022-09-26T12:35:28.633Z,89.93
2022-09-26T12:38:38.291Z,89.93
2022-09-26T12:41:36.070Z,90.25
2022-09-26T12:44:26.356Z,90.19
2022-09-26T12:47:17.839Z,91.88
2022-09-26T12:50:00.600Z,91.67
2022-09-26T12:52:56.797Z,90.43
2022-09-26T12:55:37.822Z,91.19
2022-09-26T12:58:22.817Z,91.94
2022-09-26T13:01:00.388Z,93.09
2022-09-26T13:03:56.998Z,92.68
2022-09-26T13:06:57.326Z,92.50
2022-09-26T13:09:38.871Z,92.49
2022-09-26T13:12:26.199Z,91.82
2022-09-26T13:15:02.343Z,91.01
2022-09-26T13:17:45.502Z,90.89
2022-09-26T13:20:16.348Z,90.54
2022-09-26T13:22:50.932Z,90.71
2022-09-26T13:25:30.677Z,90.16
2022-09-26T13:28:30.560Z,91.10
2022-09-26T13:31:04.744Z,92.33
2022-09-26T13:33:35.488Z,92.06
2022-09-26T13:36:04.681Z,91.93
2022-09-26T13:38:47.563Z,92.41
2022-09-26T13:41:45.676Z,92.45
2022-09-26T13:44:23.417Z,92.29
2022-09-26T13:47:23.098Z,92.66
2022-09-26T13:50:18.812Z,92.42
2022-09-26T13:53:21.511Z,92.77
2022-09-26T13:56:27.968Z,93.12
2022-09-26T13:59:24.521Z,92.20
2022-09-26T14:02:16.642Z,93.16
2022-09-26T14:04:45.712Z,94.17
2022-09-26T14:07:32.249Z,95.61
2022-09-26T14:10:02.495Z,96.38
2022-09-26T14:12:51.632Z,97.34
2022-09-26T14:15:44.728Z,97.59
2022-09-26T14:18:39.142Z,98.26
2022-09-26T14:21:23.438Z,96.59
2022-09-26T14:24:19.365Z,94.87
2022-09-26T14:26:59.772Z,93.93
2022-09-26T14:29:29.995Z,93.02
2022-09-26T14:32:04.573Z,93.65
2022-09-26T14:34:44.105Z,91.48
2022-09-26T14:37:26.294Z,93.32
2022-09-26T14:40:21.267Z,93.87
2022-09-26T14:42:57.550Z,95.30
2022-09-26T14:45:33.002Z,95.62
2022-09-26T14:48:19.784Z,94.42
2022-09-26T14:51:05.362Z,95.38
2022-09-26T14:53:41.132Z,95.84
2022-09-26T14:56:29.575Z,96.66
2022-09-26T14:59:38.529Z,95.95
2022-09-26T15:02:15.423Z,94.86
2022-09-26T15:04:45.053Z,96.15
2022-09-26T15:07:26.269Z,96.39
2022-09-26T15:10:19.184Z,96.42
2022-09-26T15:13:20.153Z,96.84
2022-09-26T15:16:11.385Z,97.27
2022-09-26T15:19:05.053Z,98.08
2022-09-26T15:21:41.293Z,98.71
2022-09-26T15:24:33.598Z,99.90
2022-09-26T15:27:09.719Z,100.00
2022-09-26T15:29:43.979Z,100.00
2022-09-26T15:32:25.861Z,100.00
2022-09-26T15:34:54.401Z,99.96
2022-09-26T15:37:23.382Z,100.00
2022-09-26T15:39:51.800Z,100.00
2022-09-26T15:42:46.898Z,99.87
2022-09-26T15:45:27.393Z,100.00
2022-09-26T15:47:57.541Z,100.00
2022-09-26T15:50:30.702Z,100.00
2022-09-26T15:53:20.959Z,99.44
2022-09-26T15:56:00.551Z,98.32
2022-09-26T15:58:44.136Z,96.91
2022-09-26T16:01:17.526Z,94.87
2022-09-26T16:03:54.232Z,93.50
2022-09-26T16:06:24.227Z,94.43
2022-09-26T16:09:04.768Z,94.15
2022-09-26T16:11:33.709Z,93.36
2022-09-26T16:14:01.371Z,92.91
2022-09-26T16:16:32.925Z,92.93
2022-09-26T16:19:04.399Z,90.57
2022-09-26T16:21:36.697Z,88.17
2022-09-26T16:24:30.581Z,88.02
2022-09-26T16:26:58.129Z,86.74
2022-09-26T16:29:36.220Z,85.42
2022-09-26T16:32:05.061Z,85.46
2022-09-26T16:34:32.854Z,84.95
2022-09-26T16:37:02.308Z,86.30
2022-09-26T16:39:31.526Z,86.17
2022-09-26T16:42:15.600Z,85.49
2022-09-26T16:44:52.065Z,87.66
2022-09-26T16:47:43.217Z,89.81
2022-09-26T16:50:36.301Z,91.15
2022-09-26T16:53:10.275Z,91.04
2022-09-26T16:55:37.837Z,89.57
2022-09-26T16:58:05.933Z,89.28
2022-09-26T17:00:53.590Z,88.76
2022-09-26T17:03:24.095Z,89.74
2022-09-26T17:05:52.812Z,91.55
2022-09-26T17:08:20.361Z,91.01
2022-09-26T17:10:48.134Z,88.90
2022-09-26T17:13:21.912Z,89.20
2022-09-26T17:15:57.686Z,89.28
2022-09-26T17:18:32.633Z,87.94
2022-09-26T17:21:00.572Z,87.14
2022-09-26T17:23:40.342Z,86.80
2022-09-26T17:26:12.636Z,85.01
2022-09-26T17:28:44.955Z,83.59
2022-09-26T17:31:20.246Z,83.95
2022-09-26T17:33:49.996Z,83.96
2022-09-26T17:36:23.532Z,83.04
2022-09-26T17:38:51.167Z,83.80
2022-09-26T17:41:18.593Z,83.67
2022-09-26T17:43:45.986Z,82.70
2022-09-26T17:46:16.171Z,82.19
2022-09-26T17:48:44.963Z,82.28
2022-09-26T17:51:14.614Z,80.86
2022-09-26T17:53:50.467Z,81.48
2022-09-26T17:56:21.494Z,82.70
2022-09-26T17:58:49.779Z,83.27
2022-09-26T18:01:30.474Z,83.99
2022-09-26T18:04:01.467Z,85.66
2022-09-26T18:06:31.985Z,86.48
2022-09-26T18:09:05.755Z,86.54
2022-09-26T18:11:34.912Z,86.00
2022-09-26T18:14:04.365Z,84.96
2022-09-26T18:16:31.749Z,87.12
2022-09-26T18:19:02.140Z,85.01
2022-09-26T18:21:32.043Z,84.32
2022-09-26T18:24:02.527Z,85.17
2022-09-26T18:26:47.616Z,86.58
2022-09-26T18:29:30.378Z,83.28
2022-09-26T18:31:59.528Z,84.29
2022-09-26T18:34:26.919Z,83.77
2022-09-26T18:36:57.644Z,85.65
2022-09-26T18:39:25.405Z,86.82
2022-09-26T18:42:02.477Z,84.54
2022-09-26T18:44:35.345Z,84.09
2022-09-26T18:47:13.520Z,85.83
2022-09-26T18:49:41.573Z,87.01
2022-09-26T18:52:16.881Z,85.44
2022-09-26T18:54:46.262Z,84.57
2022-09-26T18:57:34.508Z,87.21
2022-09-26T19:00:02.881Z,86.10
2022-09-26T19:02:38.679Z,88.46
2022-09-26T19:05:08.251Z,88.63
2022-09-26T19:07:35.928Z,89.11
2022-09-26T19:10:03.456Z,90.57
2022-09-26T19:12:31.826Z,90.94
2022-09-26T19:15:00.208Z,91.15
2022-09-26T19:17:27.582Z,92.87
2022-09-26T19:19:55.028Z,93.86
2022-09-26T19:22:22.382Z,93.77
2022-09-26T19:24:54.215Z,94.31
2022-09-26T19:27:30.193Z,93.38
2022-09-26T19:30:04.579Z,92.84
2022-09-26T19:32:44.701Z,94.29
2022-09-26T19:35:24.847Z,95.00
2022-09-26T19:37:52.505Z,94.10
2022-09-26T19:40:21.831Z,93.21
2022-09-26T19:42:49.352Z,93.75
2022-09-26T19:45:17.625Z,93.63
2022-09-26T19:47:53.455Z,94.18
2022-09-26T19:50:24.250Z,94.95
2022-09-26T19:52:56.894Z,96.16
2022-09-26T19:55:33.288Z,97.62
2022-09-26T19:58:07.955Z,96.30
2022-09-26T20:00:41.685Z,95.39
2022-09-26T20:03:25.529Z,95.46
2022-09-26T20:05:53.333Z,96.72
2022-09-26T20:08:23.718Z,96.75
2022-09-26T20:10:51.900Z,95.43
2022-09-26T20:13:19.309Z,95.60
2022-09-26T20:15:48.149Z,94.56
2022-09-26T20:18:22.170Z,93.13
2022-09-26T20:20:55.095Z,92.53
2022-09-26T20:23:27.545Z,92.24
2022-09-26T20:25:55.882Z,92.27
2022-09-26T20:28:23.455Z,91.75
2022-09-26T20:30:55.734Z,91.95
2022-09-26T20:33:24.548Z,92.92
2022-09-26T20:36:01.702Z,91.46
2022-09-26T20:39:00.814Z,88.56
2022-09-26T20:41:40.517Z,89.49
2022-09-26T20:44:22.431Z,83.03
2022-09-26T20:46:52.897Z,82.75
2022-09-26T20:49:25.798Z,83.32
2022-09-26T20:51:53.822Z,81.43
2022-09-26T20:54:30.546Z,82.50
2022-09-26T20:56:58.919Z,81.80
2022-09-26T20:59:26.831Z,81.88
2022-09-26T21:01:57.153Z,80.49
2022-09-26T21:04:33.629Z,79.05
2022-09-26T21:07:01.048Z,78.42
2022-09-26T21:09:28.549Z,76.73
2022-09-26T21:11:55.868Z,79.12
2022-09-26T21:14:23.304Z,78.61
2022-09-26T21:16:54.651Z,78.32
2022-09-26T21:19:24.589Z,76.27
2022-09-26T21:22:03.895Z,76.40
2022-09-26T21:24:42.110Z,75.33
2022-09-26T21:27:14.124Z,77.25
2022-09-26T21:29:42.249Z,77.69
2022-09-26T21:32:17.332Z,76.77
2022-09-26T21:34:55.078Z,79.75
2022-09-26T21:37:22.561Z,80.02
2022-09-26T21:39:50.339Z,82.23
2022-09-26T21:42:17.819Z,84.50
2022-09-26T21:44:51.551Z,83.82
2022-09-26T21:47:18.877Z,84.98
2022-09-26T21:49:46.964Z,85.03
2022-09-26T21:52:20.037Z,85.47
2022-09-26T21:54:47.735Z,83.99
2022-09-26T21:57:23.349Z,84.17
2022-09-26T21:59:52.491Z,85.87
2022-09-26T22:02:20.873Z,85.35
2022-09-26T22:04:48.164Z,85.33
2022-09-26T22:07:15.531Z,85.70
2022-09-26T22:09:42.822Z,84.21
2022-09-26T22:12:10.385Z,81.52
2022-09-26T22:14:37.674Z,80.76
2022-09-26T22:17:05.062Z,82.44
2022-09-26T22:19:33.767Z,81.45
2022-09-26T22:22:02.566Z,84.18
2022-09-26T22:24:30.578Z,85.44
2022-09-26T22:26:57.904Z,83.65
2022-09-26T22:29:26.065Z,84.42
2022-09-26T22:31:53.940Z,85.69
2022-09-26T22:34:28.946Z,86.22
2022-09-26T22:36:58.416Z,85.41
2022-09-26T22:39:25.932Z,84.05
2022-09-26T22:41:54.971Z,85.25
2022-09-26T22:44:22.543Z,85.72
2022-09-26T22:46:49.961Z,81.28
2022-09-26T22:49:17.455Z,82.03
2022-09-26T22:51:44.847Z,83.95
2022-09-26T22:54:29.877Z,81.21
2022-09-26T22:57:02.850Z,79.70
2022-09-26T22:59:30.220Z,81.12
2022-09-26T23:01:57.822Z,79.79
2022-09-26T23:04:45.266Z,77.87
2022-09-26T23:07:22.604Z,78.35
2022-09-26T23:09:50.135Z,79.75
2022-09-26T23:12:27.565Z,79.91
2022-09-26T23:15:04.983Z,79.85
2022-09-26T23:17:33.305Z,78.78
2022-09-26T23:20:02.796Z,79.66
2022-09-26T23:22:30.172Z,80.54
2022-09-26T23:24:59.811Z,80.59
2022-09-26T23:27:27.423Z,82.20
2022-09-26T23:29:55.625Z,81.28
2022-09-26T23:32:23.113Z,84.51
2022-09-26T23:34:53.489Z,86.68
2022-09-26T23:37:20.744Z,86.87
2022-09-26T23:39:48.222Z,85.54
2022-09-26T23:42:15.622Z,87.20
2022-09-26T23:44:42.949Z,88.64
2022-09-26T23:47:10.405Z,87.12
2022-09-26T23:49:37.771Z,89.61
2022-09-26T23:52:05.135Z,90.40
2022-09-26T23:54:32.402Z,90.91
2022-09-26T23:57:00.439Z,88.50
2022-09-26T23:59:27.892Z,89.00
